createdAt,value
2022-08-31T00:00:40.914Z,20.12
2022-08-31T00:03:07.681Z,19.89
2022-08-31T00:05:34.422Z,20.10
2022-08-31T00:08:03.447Z,20.02
2022-08-31T00:10:32.388Z,20.07
2022-08-31T00:13:00.934Z,19.94
2022-08-31T00:15:28.317Z,20.04
2022-08-31T00:17:55.101Z,19.93
2022-08-31T00:20:33.192Z,20.02
2022-08-31T00:23:10.309Z,19.72
2022-08-31T00:25:39.140Z,19.64
2022-08-31T00:28:06.500Z,19.70
2022-08-31T00:30:33.349Z,19.75
2022-08-31T00:33:00.168Z,19.79
2022-08-31T00:35:28.557Z,19.99
2022-08-31T00:37:55.575Z,19.88
2022-08-31T00:40:22.551Z,19.67
2022-08-31T00:42:49.267Z,19.74
2022-08-31T00:45:16.631Z,19.76
2022-08-31T00:47:43.368Z,19.56
2022-08-31T00:50:13.108Z,19.46
2022-08-31T00:52:43.475Z,19.53
2022-08-31T00:55:17.395Z,19.53
2022-08-31T00:57:49.419Z,19.58
2022-08-31T01:00:20.878Z,19.57
2022-08-31T01:02:48.914Z,19.58
2022-08-31T01:05:16.680Z,19.49
2022-08-31T01:07:48.374Z,19.32
2022-08-31T01:10:21.725Z,19.50
2022-08-31T01:12:51.866Z,19.39
2022-08-31T01:15:20.126Z,19.48
2022-08-31T01:17:49.249Z,19.51
2022-08-31T01:20:42.579Z,19.75
2022-08-31T01:23:29.616Z,19.67
2022-08-31T01:25:58.986Z,19.48
2022-08-31T01:28:26.347Z,19.54
2022-08-31T01:31:04.041Z,19.49
2022-08-31T01:33:32.632Z,19.35
2022-08-31T01:35:59.776Z,19.35
2022-08-31T01:38:26.837Z,19.37
2022-08-31T01:40:56.657Z,19.26
2022-08-31T01:43:24.181Z,19.16
2022-08-31T01:45:51.519Z,19.19
2022-08-31T01:48:18.361Z,19.12
2022-08-31T01:50:45.108Z,19.14
2022-08-31T01:53:12.298Z,19.25
2022-08-31T01:55:39.888Z,19.55
2022-08-31T01:58:07.765Z,19.33
2022-08-31T02:00:35.813Z,19.13
2022-08-31T02:03:03.264Z,19.11
2022-08-31T02:05:29.922Z,19.05
2022-08-31T02:07:57.758Z,18.91
2022-08-31T02:10:25.112Z,18.83
2022-08-31T02:12:51.765Z,18.88
2022-08-31T02:15:18.502Z,18.92
2022-08-31T02:17:45.147Z,18.93
2022-08-31T02:20:14.474Z,18.87
2022-08-31T02:22:41.512Z,18.59
2022-08-31T02:25:09.439Z,18.49
2022-08-31T02:27:37.571Z,18.34
2022-08-31T02:30:11.039Z,18.34
2022-08-31T02:32:37.928Z,18.29
2022-08-31T02:35:05.139Z,18.37
2022-08-31T02:37:32.239Z,18.37
2022-08-31T02:39:59.247Z,18.50
2022-08-31T02:42:31.199Z,18.49
2022-08-31T02:45:13.311Z,18.51
2022-08-31T02:47:39.933Z,18.48
2022-08-31T02:50:08.361Z,18.46
2022-08-31T02:52:35.627Z,18.52
2022-08-31T02:55:03.959Z,18.62
2022-08-31T02:57:30.644Z,18.41
2022-08-31T02:59:57.370Z,18.33
2022-08-31T03:02:31.642Z,18.21
2022-08-31T03:05:01.436Z,18.24
2022-08-31T03:07:28.129Z,18.10
2022-08-31T03:09:54.732Z,18.17
2022-08-31T03:12:21.370Z,18.02
2022-08-31T03:14:47.996Z,17.98
2022-08-31T03:17:14.641Z,18.01
2022-08-31T03:19:41.270Z,17.97
2022-08-31T03:22:07.897Z,17.96
2022-08-31T03:24:34.646Z,17.90
2022-08-31T03:27:01.314Z,17.90
2022-08-31T03:29:27.958Z,17.94
2022-08-31T03:31:54.685Z,18.00
2022-08-31T03:34:21.353Z,18.03
2022-08-31T03:36:48.062Z,17.84
2022-08-31T03:39:14.759Z,17.80
2022-08-31T03:41:41.456Z,17.89
2022-08-31T03:44:08.096Z,17.80
2022-08-31T03:46:34.769Z,17.88
2022-08-31T03:49:03.231Z,17.92
2022-08-31T03:51:30.219Z,17.75
2022-08-31T03:53:56.942Z,17.73
2022-08-31T03:56:23.599Z,17.83
2022-08-31T03:58:50.939Z,17.88
2022-08-31T04:01:17.630Z,17.88
2022-08-31T04:03:44.299Z,17.82
2022-08-31T04:06:12.425Z,18.00
2022-08-31T04:08:40.413Z,18.20
2022-08-31T04:11:16.569Z,18.07
2022-08-31T04:13:44.550Z,18.09
2022-08-31T04:16:13.786Z,18.15
2022-08-31T04:18:42.730Z,18.03
2022-08-31T04:21:29.760Z,17.94
2022-08-31T04:23:57.360Z,17.87
2022-08-31T04:26:27.656Z,18.12
2022-08-31T04:28:55.426Z,17.96
2022-08-31T04:31:24.935Z,17.93
2022-08-31T04:33:52.922Z,17.92
2022-08-31T04:36:22.590Z,17.86
2022-08-31T04:38:51.860Z,17.83
2022-08-31T04:41:21.680Z,17.93
2022-08-31T04:43:52.477Z,17.83
2022-08-31T04:46:20.767Z,17.81
2022-08-31T04:48:48.236Z,17.73
2022-08-31T04:51:17.525Z,17.63
2022-08-31T04:53:44.876Z,17.46
2022-08-31T04:56:17.884Z,17.41
2022-08-31T04:58:50.151Z,17.54
2022-08-31T05:01:19.598Z,17.58
2022-08-31T05:03:46.531Z,17.75
2022-08-31T05:06:15.604Z,17.86
2022-08-31T05:08:42.919Z,17.96
2022-08-31T05:11:19.024Z,17.75
2022-08-31T05:13:48.813Z,17.74
2022-08-31T05:16:17.845Z,17.61
2022-08-31T05:18:46.595Z,17.68
2022-08-31T05:21:20.394Z,17.57
2022-08-31T05:23:48.116Z,17.51
2022-08-31T05:26:25.990Z,17.43
2022-08-31T05:28:54.582Z,17.55
2022-08-31T05:31:21.369Z,17.58
2022-08-31T05:33:48.203Z,17.64
2022-08-31T05:36:15.839Z,17.63
2022-08-31T05:38:42.973Z,17.73
2022-08-31T05:41:10.419Z,17.62
2022-08-31T05:43:38.198Z,17.67
2022-08-31T05:46:10.097Z,17.62
2022-08-31T05:48:37.943Z,17.64
2022-08-31T05:51:07.036Z,17.66
2022-08-31T05:53:34.831Z,17.66
2022-08-31T05:56:05.067Z,17.75
2022-08-31T05:58:33.826Z,17.85
2022-08-31T06:01:00.510Z,17.85
2022-08-31T06:03:27.361Z,17.86
2022-08-31T06:05:54.006Z,17.93
2022-08-31T06:08:26.997Z,18.17
2022-08-31T06:10:54.741Z,18.20
2022-08-31T06:13:21.429Z,18.25
2022-08-31T06:15:48.110Z,18.47
2022-08-31T06:18:14.765Z,18.89
2022-08-31T06:20:41.530Z,18.91
2022-08-31T06:23:08.700Z,18.90
2022-08-31T06:25:35.403Z,19.16
2022-08-31T06:28:04.022Z,19.08
2022-08-31T06:30:30.662Z,19.13
2022-08-31T06:32:58.878Z,19.28
2022-08-31T06:35:25.669Z,19.49
2022-08-31T06:37:52.306Z,19.51
2022-08-31T06:40:19.130Z,19.49
2022-08-31T06:42:45.881Z,19.59
2022-08-31T06:45:12.652Z,19.75
2022-08-31T06:47:39.247Z,20.03
2022-08-31T06:50:06.408Z,19.94
2022-08-31T06:52:36.917Z,20.32
2022-08-31T06:55:05.994Z,20.58
2022-08-31T06:57:32.599Z,20.65
2022-08-31T07:00:02.375Z,20.82
2022-08-31T07:02:30.746Z,20.94
2022-08-31T07:05:00.069Z,20.92
2022-08-31T07:07:26.696Z,21.21
2022-08-31T07:09:53.334Z,21.13
2022-08-31T07:12:19.972Z,21.36
2022-08-31T07:14:52.969Z,21.38
2022-08-31T07:17:22.131Z,21.41
2022-08-31T07:19:48.758Z,21.35
2022-08-31T07:22:15.645Z,21.71
2022-08-31T07:24:42.413Z,21.81
2022-08-31T07:27:11.029Z,21.80
2022-08-31T07:29:39.353Z,21.87
2022-08-31T07:32:11.427Z,21.75
2022-08-31T07:34:38.228Z,21.84
2022-08-31T07:37:06.056Z,21.96
2022-08-31T07:39:33.584Z,22.32
2022-08-31T07:42:00.220Z,22.81
2022-08-31T07:44:26.933Z,22.81
2022-08-31T07:46:53.651Z,22.92
2022-08-31T07:49:20.350Z,23.00
2022-08-31T07:51:49.640Z,22.88
2022-08-31T07:54:19.761Z,22.80
2022-08-31T07:56:48.320Z,23.06
2022-08-31T07:59:14.972Z,23.02
2022-08-31T08:01:41.797Z,22.99
2022-08-31T08:04:09.680Z,23.00
2022-08-31T08:06:36.308Z,22.97
2022-08-31T08:09:22.312Z,23.26
2022-08-31T08:11:51.513Z,23.46
2022-08-31T08:14:18.144Z,23.56
2022-08-31T08:16:46.783Z,23.64
2022-08-31T08:19:13.929Z,23.80
2022-08-31T08:21:40.635Z,23.88
2022-08-31T08:24:07.315Z,23.80
2022-08-31T08:26:34.891Z,23.92
2022-08-31T08:29:01.555Z,23.62
2022-08-31T08:31:28.227Z,23.24
2022-08-31T08:33:55.016Z,23.59
2022-08-31T08:36:21.828Z,23.58
2022-08-31T08:38:50.546Z,23.80
2022-08-31T08:41:20.930Z,23.95
2022-08-31T08:43:52.715Z,24.20
2022-08-31T08:46:44.917Z,24.03
2022-08-31T08:49:22.857Z,24.22
2022-08-31T08:51:58.387Z,24.38
2022-08-31T08:54:35.088Z,24.73
2022-08-31T08:57:12.098Z,24.61
2022-08-31T08:59:38.746Z,24.78
2022-08-31T09:02:06.766Z,24.64
2022-08-31T09:04:54.773Z,24.86
2022-08-31T09:07:38.881Z,25.16
2022-08-31T09:10:34.751Z,24.81
2022-08-31T09:13:01.388Z,24.61
2022-08-31T09:15:40.566Z,25.26
2022-08-31T09:18:28.451Z,24.89
2022-08-31T09:21:08.373Z,24.79
2022-08-31T09:23:40.153Z,24.43
2022-08-31T09:26:08.608Z,25.16
2022-08-31T09:28:38.604Z,25.51
2022-08-31T09:31:05.614Z,25.43
2022-08-31T09:33:35.343Z,25.33
2022-08-31T09:36:22.756Z,25.89
2022-08-31T09:38:49.833Z,25.61
2022-08-31T09:41:30.006Z,25.76
2022-08-31T09:44:23.208Z,25.81
2022-08-31T09:46:52.348Z,25.63
2022-08-31T09:49:26.717Z,25.34
2022-08-31T09:51:53.395Z,25.69
2022-08-31T09:54:22.901Z,26.09
2022-08-31T09:56:57.985Z,26.11
2022-08-31T09:59:36.785Z,25.98
2022-08-31T10:02:31.047Z,25.86
2022-08-31T10:05:00.802Z,25.93
2022-08-31T10:07:27.398Z,26.25
2022-08-31T10:10:30.565Z,25.90
2022-08-31T10:13:42.693Z,26.03
2022-08-31T10:16:21.404Z,26.31
2022-08-31T10:19:21.337Z,26.09
2022-08-31T10:21:53.666Z,26.42
2022-08-31T10:24:40.880Z,26.27
2022-08-31T10:27:20.600Z,26.34
2022-08-31T10:30:08.246Z,26.33
2022-08-31T10:32:50.125Z,26.66
2022-08-31T10:35:26.739Z,27.04
2022-08-31T10:38:10.084Z,27.09
2022-08-31T10:40:46.454Z,27.35
2022-08-31T10:43:16.156Z,27.23
2022-08-31T10:45:45.868Z,27.21
2022-08-31T10:48:12.881Z,26.95
2022-08-31T10:50:45.815Z,26.84
2022-08-31T10:53:34.627Z,26.57
2022-08-31T10:56:38.439Z,26.56
2022-08-31T10:59:46.163Z,27.00
2022-08-31T11:02:43.912Z,26.92
2022-08-31T11:05:25.579Z,27.27
2022-08-31T11:07:58.877Z,27.23
2022-08-31T11:10:50.696Z,27.21
2022-08-31T11:13:45.128Z,27.12
2022-08-31T11:16:49.653Z,27.30
2022-08-31T11:19:22.110Z,27.65
2022-08-31T11:21:54.373Z,27.76
2022-08-31T11:24:51.475Z,27.77
2022-08-31T11:27:28.948Z,28.17
2022-08-31T11:29:55.510Z,28.31
2022-08-31T11:32:39.075Z,28.00
2022-08-31T11:35:08.343Z,27.95
2022-08-31T11:37:47.214Z,27.95
2022-08-31T11:40:13.877Z,27.95
2022-08-31T11:42:40.555Z,27.74
2022-08-31T11:45:27.192Z,28.04
2022-08-31T11:47:54.350Z,28.01
2022-08-31T11:50:39.310Z,27.85
2022-08-31T11:53:33.843Z,27.48
2022-08-31T11:56:01.723Z,27.49
2022-08-31T11:58:31.012Z,27.38
2022-08-31T12:01:01.901Z,27.31
2022-08-31T12:03:51.340Z,27.52
2022-08-31T12:06:26.741Z,27.35
2022-08-31T12:09:19.054Z,27.50
2022-08-31T12:11:57.585Z,27.09
2022-08-31T12:14:45.266Z,27.48
2022-08-31T12:17:11.822Z,26.96
2022-08-31T12:20:09.142Z,26.55
2022-08-31T12:22:56.444Z,26.83
2022-08-31T12:25:46.654Z,26.82
2022-08-31T12:28:44.341Z,27.49
2022-08-31T12:31:15.993Z,27.31
2022-08-31T12:33:59.088Z,27.83
2022-08-31T12:36:29.629Z,27.86
2022-08-31T12:39:08.488Z,27.39
2022-08-31T12:41:38.472Z,27.29
2022-08-31T12:44:05.388Z,27.43
2022-08-31T12:47:05.244Z,27.58
2022-08-31T12:49:50.214Z,27.58
2022-08-31T12:52:25.929Z,27.60
2022-08-31T12:55:20.299Z,27.68
2022-08-31T12:58:27.163Z,27.64
2022-08-31T13:01:09.521Z,27.06
2022-08-31T13:03:39.849Z,26.84
2022-08-31T13:06:16.009Z,27.40
2022-08-31T13:08:48.166Z,27.62
2022-08-31T13:11:22.915Z,27.76
2022-08-31T13:13:51.106Z,27.75
2022-08-31T13:16:18.523Z,27.85
2022-08-31T13:18:45.601Z,27.48
2022-08-31T13:21:12.690Z,27.60
2022-08-31T13:23:42.588Z,27.01
2022-08-31T13:26:22.103Z,26.67
2022-08-31T13:28:55.638Z,27.13
2022-08-31T13:31:26.103Z,27.83
2022-08-31T13:33:53.171Z,28.19
2022-08-31T13:36:25.857Z,27.98
2022-08-31T13:38:53.247Z,27.62
2022-08-31T13:41:27.816Z,27.80
2022-08-31T13:43:57.718Z,27.46
2022-08-31T13:46:42.502Z,27.36
2022-08-31T13:49:29.639Z,27.71
2022-08-31T13:51:56.912Z,27.99
2022-08-31T13:54:33.004Z,28.26
2022-08-31T13:57:17.249Z,28.58
2022-08-31T13:59:43.917Z,28.61
2022-08-31T14:02:13.559Z,28.86
2022-08-31T14:04:42.978Z,27.92
2022-08-31T14:07:19.889Z,28.05
2022-08-31T14:09:54.423Z,27.51
2022-08-31T14:12:35.042Z,28.24
2022-08-31T14:15:10.746Z,27.68
2022-08-31T14:21:10.246Z,27.56
2022-08-31T14:23:39.330Z,28.20
2022-08-31T14:26:17.840Z,28.15
2022-08-31T14:28:46.947Z,27.91
2022-08-31T14:31:38.361Z,27.90
2022-08-31T14:34:21.389Z,27.20
2022-08-31T14:36:52.431Z,26.85
2022-08-31T14:39:26.081Z,27.16
2022-08-31T14:41:55.266Z,26.93
2022-08-31T14:44:26.287Z,26.99
2022-08-31T14:46:53.505Z,26.99
2022-08-31T14:49:20.572Z,27.09
2022-08-31T14:51:47.233Z,26.79
2022-08-31T14:54:14.132Z,26.93
2022-08-31T14:56:45.415Z,27.06
2022-08-31T14:59:14.427Z,27.11
2022-08-31T15:01:41.150Z,27.04
2022-08-31T15:04:07.821Z,27.30
2022-08-31T15:06:34.961Z,27.39
2022-08-31T15:09:01.602Z,27.53
2022-08-31T15:11:28.243Z,27.59
2022-08-31T15:13:54.893Z,27.63
2022-08-31T15:16:21.650Z,27.88
2022-08-31T15:18:48.305Z,27.45
2022-08-31T15:21:16.047Z,26.96
2022-08-31T15:23:43.202Z,27.15
2022-08-31T15:26:12.215Z,26.87
2022-08-31T15:28:40.927Z,27.37
2022-08-31T15:31:27.809Z,27.38
2022-08-31T15:33:57.512Z,27.52
2022-08-31T15:36:24.589Z,27.12
2022-08-31T15:38:56.223Z,27.48
2022-08-31T15:41:26.924Z,26.98
2022-08-31T15:43:53.540Z,26.80
2022-08-31T15:46:20.890Z,26.81
2022-08-31T15:48:47.580Z,26.66
2022-08-31T15:51:24.571Z,26.90
2022-08-31T15:54:18.532Z,26.64
2022-08-31T15:56:39.848Z,26.74
2022-08-31T15:59:06.870Z,26.87
2022-08-31T16:01:33.525Z,26.77
2022-08-31T16:04:00.359Z,26.58
2022-08-31T16:06:29.597Z,26.69
2022-08-31T16:08:57.008Z,26.48
2022-08-31T16:11:26.012Z,26.31
2022-08-31T16:13:54.564Z,25.91
2022-08-31T16:16:21.265Z,25.97
2022-08-31T16:18:50.487Z,25.85
2022-08-31T16:21:20.716Z,25.75
2022-08-31T16:23:56.197Z,25.94
2022-08-31T16:26:22.850Z,25.91
2022-08-31T16:28:49.558Z,25.76
2022-08-31T16:31:16.451Z,25.88
2022-08-31T16:33:43.273Z,25.92
2022-08-31T16:36:16.945Z,25.70
2022-08-31T16:38:45.058Z,25.76
2022-08-31T16:41:13.492Z,25.74
2022-08-31T16:43:40.911Z,25.80
2022-08-31T16:46:30.449Z,25.74
2022-08-31T16:48:56.224Z,25.97
2022-08-31T16:51:23.728Z,25.63
2022-08-31T16:53:55.602Z,25.57
2022-08-31T16:56:23.713Z,25.46
2022-08-31T16:58:52.689Z,25.64
2022-08-31T17:01:26.055Z,25.51
2022-08-31T17:04:00.007Z,25.35
2022-08-31T17:06:29.466Z,25.63
2022-08-31T17:09:01.651Z,25.39
2022-08-31T17:11:30.078Z,25.54
2022-08-31T17:13:59.507Z,25.90
2022-08-31T17:16:30.897Z,26.02
2022-08-31T17:18:58.567Z,25.87
2022-08-31T17:21:27.583Z,25.91
2022-08-31T17:23:59.797Z,25.71
2022-08-31T17:26:29.502Z,25.74
2022-08-31T17:28:56.436Z,25.75
2022-08-31T17:31:23.234Z,25.45
2022-08-31T17:33:49.950Z,25.10
2022-08-31T17:36:16.972Z,25.27
2022-08-31T17:38:44.418Z,25.04
2022-08-31T17:41:11.071Z,24.92
2022-08-31T17:43:37.739Z,25.04
2022-08-31T17:46:08.077Z,24.83
2022-08-31T17:48:35.346Z,24.62
2022-08-31T17:51:04.998Z,25.10
2022-08-31T17:53:31.845Z,25.05
2022-08-31T17:55:58.553Z,25.16
2022-08-31T17:58:25.256Z,25.07
2022-08-31T18:00:51.948Z,24.75
2022-08-31T18:03:18.626Z,24.80
2022-08-31T18:05:46.364Z,24.59
2022-08-31T18:08:13.537Z,24.67
2022-08-31T18:10:40.772Z,24.38
2022-08-31T18:13:08.052Z,24.46
2022-08-31T18:15:35.156Z,24.26
2022-08-31T18:18:01.921Z,24.37
2022-08-31T18:20:28.616Z,24.59
2022-08-31T18:22:55.293Z,24.49
2022-08-31T18:25:21.951Z,24.59
2022-08-31T18:27:48.649Z,24.48
2022-08-31T18:30:15.346Z,24.72
2022-08-31T18:32:42.448Z,25.13
2022-08-31T18:35:14.011Z,25.23
2022-08-31T18:37:41.204Z,24.88
2022-08-31T18:40:09.072Z,24.94
2022-08-31T18:42:36.293Z,25.07
2022-08-31T18:45:03.037Z,24.63
2022-08-31T18:47:29.989Z,24.30
2022-08-31T18:49:56.992Z,24.30
2022-08-31T18:52:25.184Z,23.72
2022-08-31T18:54:54.461Z,23.75
2022-08-31T18:57:23.414Z,24.09
2022-08-31T18:59:50.745Z,23.95
2022-08-31T19:02:17.560Z,23.75
2022-08-31T19:04:44.932Z,23.86
2022-08-31T19:07:12.277Z,23.84
2022-08-31T19:09:38.940Z,23.54
2022-08-31T19:12:05.795Z,23.53
2022-08-31T19:14:36.407Z,23.49
2022-08-31T19:17:04.601Z,23.47
2022-08-31T19:19:32.024Z,23.61
2022-08-31T19:21:58.661Z,23.30
2022-08-31T19:24:25.337Z,23.40
2022-08-31T19:26:55.629Z,22.85
2022-08-31T19:29:25.141Z,22.83
2022-08-31T19:31:53.223Z,22.91
2022-08-31T19:34:27.787Z,22.68
2022-08-31T19:36:55.535Z,22.50
2022-08-31T19:39:27.714Z,22.50
2022-08-31T19:41:57.297Z,22.22
2022-08-31T19:44:25.039Z,22.09
2022-08-31T19:46:53.091Z,22.06
2022-08-31T19:49:19.936Z,21.99
2022-08-31T19:51:48.994Z,21.91
2022-08-31T19:54:15.609Z,22.09
2022-08-31T19:56:42.371Z,21.95
2022-08-31T19:59:09.773Z,22.25
2022-08-31T20:01:39.275Z,22.36
2022-08-31T20:04:07.728Z,22.43
2022-08-31T20:06:34.328Z,22.11
2022-08-31T20:09:00.969Z,22.14
2022-08-31T20:11:30.149Z,22.31
2022-08-31T20:13:57.988Z,21.92
2022-08-31T20:16:33.417Z,21.82
2022-08-31T20:19:02.285Z,21.66
2022-08-31T20:21:31.739Z,21.48
2022-08-31T20:24:03.093Z,21.48
2022-08-31T20:26:36.311Z,21.76
2022-08-31T20:29:06.728Z,21.63
2022-08-31T20:31:33.439Z,21.79
2022-08-31T20:34:00.144Z,21.85
2022-08-31T20:36:29.440Z,21.39
2022-08-31T20:39:00.731Z,21.69
2022-08-31T20:41:30.861Z,21.64
2022-08-31T20:44:02.885Z,21.47
2022-08-31T20:46:29.599Z,21.62
2022-08-31T20:48:57.153Z,21.84
2022-08-31T20:51:23.804Z,21.50
2022-08-31T20:53:50.662Z,21.69
2022-08-31T20:56:17.980Z,21.46
2022-08-31T20:58:47.724Z,21.74
2022-08-31T21:01:14.469Z,21.72
2022-08-31T21:03:41.548Z,21.58
2022-08-31T21:06:09.892Z,21.51
2022-08-31T21:08:37.877Z,21.32
2022-08-31T21:11:16.227Z,21.15
2022-08-31T21:13:44.087Z,20.97
2022-08-31T21:16:11.461Z,20.53
2022-08-31T21:18:38.527Z,20.80
2022-08-31T21:21:08.408Z,21.09
2022-08-31T21:23:37.064Z,20.96
2022-08-31T21:26:05.100Z,21.25
2022-08-31T21:28:31.817Z,21.11
2022-08-31T21:31:05.533Z,20.99
2022-08-31T21:33:35.674Z,20.66
2022-08-31T21:36:06.686Z,20.84
2022-08-31T21:38:34.472Z,20.76
2022-08-31T21:41:02.086Z,20.67
2022-08-31T21:43:29.417Z,20.50
2022-08-31T21:46:06.030Z,20.38
2022-08-31T21:48:34.737Z,20.52
2022-08-31T21:51:15.234Z,20.44
2022-08-31T21:53:44.429Z,20.36
2022-08-31T21:56:11.355Z,20.19
2022-08-31T21:58:38.624Z,20.56
2022-08-31T22:01:06.762Z,20.62
2022-08-31T22:03:34.042Z,20.43
2022-08-31T22:06:01.835Z,20.30
2022-08-31T22:08:28.462Z,20.33
2022-08-31T22:10:55.085Z,20.14
2022-08-31T22:13:21.776Z,20.28
2022-08-31T22:15:48.499Z,20.10
2022-08-31T22:21:01.929Z,19.77
2022-08-31T22:23:28.748Z,19.95
2022-08-31T22:25:55.871Z,20.50
2022-08-31T22:28:22.533Z,20.76
2022-08-31T22:30:49.208Z,20.58
2022-08-31T22:33:15.984Z,20.63
2022-08-31T22:35:42.651Z,20.46
2022-08-31T22:38:09.316Z,20.39
2022-08-31T22:40:38.911Z,20.22
2022-08-31T22:43:06.259Z,20.34
2022-08-31T22:45:33.384Z,19.94
2022-08-31T22:48:00.138Z,20.34
2022-08-31T22:50:26.832Z,20.28
2022-08-31T22:52:53.475Z,20.02
2022-08-31T22:55:20.088Z,19.62
2022-08-31T22:57:46.805Z,19.63
2022-08-31T23:00:13.769Z,19.19
2022-08-31T23:02:40.787Z,19.36
2022-08-31T23:05:08.264Z,19.14
2022-08-31T23:07:34.871Z,19.32
2022-08-31T23:10:01.685Z,19.18
2022-08-31T23:12:28.664Z,19.30
2022-08-31T23:14:55.268Z,19.12
2022-08-31T23:17:21.972Z,19.10
2022-08-31T23:19:48.609Z,19.04
2022-08-31T23:22:15.514Z,18.70
2022-08-31T23:24:45.637Z,18.57
2022-08-31T23:27:15.094Z,18.23
2022-08-31T23:29:44.804Z,18.15
2022-08-31T23:32:11.670Z,18.02
2022-08-31T23:34:39.410Z,17.94
2022-08-31T23:37:07.250Z,17.12
2022-08-31T23:39:36.303Z,17.60
2022-08-31T23:42:03.124Z,17.07
2022-08-31T23:44:29.886Z,16.94
2022-08-31T23:46:56.603Z,16.91
2022-08-31T23:49:23.267Z,16.97
2022-08-31T23:51:49.982Z,17.08
2022-08-31T23:54:17.233Z,17.55
2022-08-31T23:56:47.167Z,17.17
2022-08-31T23:59:18.824Z,17.19
